sensor_id;sensor_type;location;lat;lon;timestamp;temperature;humidity
26821;DHT22;37186;51.394;5.454;2023-04-01T00:02:15;12.70;83.20
26821;DHT22;37186;51.394;5.454;2023-04-01T00:05:16;12.70;82.70
26821;DHT22;37186;51.394;5.454;2023-04-01T00:08:17;12.70;82.70
26821;DHT22;37186;51.394;5.454;2023-04-01T00:11:18;12.70;82.50
26821;DHT22;37186;51.394;5.454;2023-04-01T00:14:18;12.70;82.80
26821;DHT22;37186;51.394;5.454;2023-04-01T00:17:19;12.60;82.90
26821;DHT22;37186;51.394;5.454;2023-04-01T00:20:21;12.60;82.50
26821;DHT22;37186;51.394;5.454;2023-04-01T00:23:21;12.60;82.70
26821;DHT22;37186;51.394;5.454;2023-04-01T00:26:22;12.60;82.20
26821;DHT22;37186;51.394;5.454;2023-04-01T00:29:22;12.60;82.40
26821;DHT22;37186;51.394;5.454;2023-04-01T00:32:24;12.60;82.80
26821;DHT22;37186;51.394;5.454;2023-04-01T00:35:26;12.60;83.20
26821;DHT22;37186;51.394;5.454;2023-04-01T00:38:26;12.50;83.20
26821;DHT22;37186;51.394;5.454;2023-04-01T00:41:27;12.60;83.10
26821;DHT22;37186;51.394;5.454;2023-04-01T00:44:30;12.60;83.30
26821;DHT22;37186;51.394;5.454;2023-04-01T00:47:31;12.60;83.00
26821;DHT22;37186;51.394;5.454;2023-04-01T00:50:33;12.50;83.10
26821;DHT22;37186;51.394;5.454;2023-04-01T00:53:39;12.60;83.20
26821;DHT22;37186;51.394;5.454;2023-04-01T00:56:46;12.50;83.20
26821;DHT22;37186;51.394;5.454;2023-04-01T00:59:52;12.50;83.10
26821;DHT22;37186;51.394;5.454;2023-04-01T01:02:53;12.50;82.60
26821;DHT22;37186;51.394;5.454;2023-04-01T01:06:11;12.50;83.10
26821;DHT22;37186;51.394;5.454;2023-04-01T01:12:50;12.50;82.80
26821;DHT22;37186;51.394;5.454;2023-04-01T01:16:04;12.50;82.90
26821;DHT22;37186;51.394;5.454;2023-04-01T01:35:27;12.40;82.70
26821;DHT22;37186;51.394;5.454;2023-04-01T01:38:32;12.40;82.90
26821;DHT22;37186;51.394;5.454;2023-04-01T01:41:35;12.40;83.10
26821;DHT22;37186;51.394;5.454;2023-04-01T01:44:38;12.40;83.10
26821;DHT22;37186;51.394;5.454;2023-04-01T01:47:40;12.40;82.70
26821;DHT22;37186;51.394;5.454;2023-04-01T01:50:43;12.40;82.80
26821;DHT22;37186;51.394;5.454;2023-04-01T01:53:44;12.40;82.80
26821;DHT22;37186;51.394;5.454;2023-04-01T01:56:50;12.40;82.70
26821;DHT22;37186;51.394;5.454;2023-04-01T01:59:54;12.40;83.00
26821;DHT22;37186;51.394;5.454;2023-04-01T02:02:57;12.40;83.00
26821;DHT22;37186;51.394;5.454;2023-04-01T02:06:00;12.40;82.90
26821;DHT22;37186;51.394;5.454;2023-04-01T02:09:04;12.40;83.30
26821;DHT22;37186;51.394;5.454;2023-04-01T02:12:08;12.40;83.10
26821;DHT22;37186;51.394;5.454;2023-04-01T02:15:12;12.40;82.70
26821;DHT22;37186;51.394;5.454;2023-04-01T02:18:15;12.40;83.20
26821;DHT22;37186;51.394;5.454;2023-04-01T02:21:17;12.40;83.30
26821;DHT22;37186;51.394;5.454;2023-04-01T02:24:20;12.40;82.80
26821;DHT22;37186;51.394;5.454;2023-04-01T02:27:23;12.40;82.70
26821;DHT22;37186;51.394;5.454;2023-04-01T02:30:26;12.50;82.70
26821;DHT22;37186;51.394;5.454;2023-04-01T02:33:28;12.40;82.70
26821;DHT22;37186;51.394;5.454;2023-04-01T02:36:29;12.50;82.80
26821;DHT22;37186;51.394;5.454;2023-04-01T02:39:30;12.50;82.80
26821;DHT22;37186;51.394;5.454;2023-04-01T02:42:30;12.40;82.50
26821;DHT22;37186;51.394;5.454;2023-04-01T02:45:31;12.40;82.50
26821;DHT22;37186;51.394;5.454;2023-04-01T02:48:31;12.40;82.50
26821;DHT22;37186;51.394;5.454;2023-04-01T02:51:33;12.40;82.60
26821;DHT22;37186;51.394;5.454;2023-04-01T02:54:33;12.50;82.60
26821;DHT22;37186;51.394;5.454;2023-04-01T02:57:34;12.50;82.80
26821;DHT22;37186;51.394;5.454;2023-04-01T03:00:34;12.50;83.30
26821;DHT22;37186;51.394;5.454;2023-04-01T03:03:35;12.40;82.80
26821;DHT22;37186;51.394;5.454;2023-04-01T03:06:35;12.50;83.00
26821;DHT22;37186;51.394;5.454;2023-04-01T03:09:37;12.40;82.90
26821;DHT22;37186;51.394;5.454;2023-04-01T03:12:38;12.40;82.60
26821;DHT22;37186;51.394;5.454;2023-04-01T03:15:38;12.40;82.80
26821;DHT22;37186;51.394;5.454;2023-04-01T03:18:39;12.40;82.70
26821;DHT22;37186;51.394;5.454;2023-04-01T03:21:39;12.40;83.00
26821;DHT22;37186;51.394;5.454;2023-04-01T03:24:40;12.40;82.70
26821;DHT22;37186;51.394;5.454;2023-04-01T03:27:40;12.40;82.80
26821;DHT22;37186;51.394;5.454;2023-04-01T03:30:41;12.40;82.90
26821;DHT22;37186;51.394;5.454;2023-04-01T03:33:42;12.40;82.90
26821;DHT22;37186;51.394;5.454;2023-04-01T03:36:43;12.40;82.80
26821;DHT22;37186;51.394;5.454;2023-04-01T03:39:43;12.40;83.00
26821;DHT22;37186;51.394;5.454;2023-04-01T03:42:44;12.30;82.90
26821;DHT22;37186;51.394;5.454;2023-04-01T03:45:49;12.30;82.80
26821;DHT22;37186;51.394;5.454;2023-04-01T03:48:50;12.30;83.00
26821;DHT22;37186;51.394;5.454;2023-04-01T03:51:50;12.30;82.80
26821;DHT22;37186;51.394;5.454;2023-04-01T03:54:51;12.30;82.80
26821;DHT22;37186;51.394;5.454;2023-04-01T03:57:51;12.30;82.70
26821;DHT22;37186;51.394;5.454;2023-04-01T04:00:52;12.30;83.00
26821;DHT22;37186;51.394;5.454;2023-04-01T04:03:52;12.30;82.90
26821;DHT22;37186;51.394;5.454;2023-04-01T04:06:54;12.30;83.00
26821;DHT22;37186;51.394;5.454;2023-04-01T04:09:54;12.30;82.80
26821;DHT22;37186;51.394;5.454;2023-04-01T04:12:55;12.30;82.90
26821;DHT22;37186;51.394;5.454;2023-04-01T04:15:56;12.30;83.00
26821;DHT22;37186;51.394;5.454;2023-04-01T04:18:56;12.30;83.60
26821;DHT22;37186;51.394;5.454;2023-04-01T04:21:57;12.30;83.00
26821;DHT22;37186;51.394;5.454;2023-04-01T04:24:59;12.20;83.80
26821;DHT22;37186;51.394;5.454;2023-04-01T04:28:00;12.20;83.50
26821;DHT22;37186;51.394;5.454;2023-04-01T04:31:01;12.20;83.50
26821;DHT22;37186;51.394;5.454;2023-04-01T04:34:01;12.20;83.20
26821;DHT22;37186;51.394;5.454;2023-04-01T04:37:02;12.20;83.20
26821;DHT22;37186;51.394;5.454;2023-04-01T04:40:03;12.20;83.70
26821;DHT22;37186;51.394;5.454;2023-04-01T04:43:04;12.20;83.30
26821;DHT22;37186;51.394;5.454;2023-04-01T04:46:09;12.20;83.40
26821;DHT22;37186;51.394;5.454;2023-04-01T04:49:10;12.20;83.20
26821;DHT22;37186;51.394;5.454;2023-04-01T04:52:10;12.20;83.30
26821;DHT22;37186;51.394;5.454;2023-04-01T04:55:11;12.20;84.20
26821;DHT22;37186;51.394;5.454;2023-04-01T04:58:12;12.10;83.30
26821;DHT22;37186;51.394;5.454;2023-04-01T05:01:15;12.10;83.40
26821;DHT22;37186;51.394;5.454;2023-04-01T05:04:15;12.10;83.60
26821;DHT22;37186;51.394;5.454;2023-04-01T05:07:16;12.10;83.80
26821;DHT22;37186;51.394;5.454;2023-04-01T05:10:16;12.10;83.60
26821;DHT22;37186;51.394;5.454;2023-04-01T05:13:17;12.00;83.70
26821;DHT22;37186;51.394;5.454;2023-04-01T05:16:19;12.00;83.50
26821;DHT22;37186;51.394;5.454;2023-04-01T05:19:20;12.00;83.80
26821;DHT22;37186;51.394;5.454;2023-04-01T05:22:20;12.00;83.80
26821;DHT22;37186;51.394;5.454;2023-04-01T05:25:21;11.90;83.70
26821;DHT22;37186;51.394;5.454;2023-04-01T05:28:22;12.00;83.80
26821;DHT22;37186;51.394;5.454;2023-04-01T05:31:22;11.90;83.70
26821;DHT22;37186;51.394;5.454;2023-04-01T05:34:24;11.90;84.20
26821;DHT22;37186;51.394;5.454;2023-04-01T05:37:24;12.00;84.00
26821;DHT22;37186;51.394;5.454;2023-04-01T05:40:25;11.90;84.00
26821;DHT22;37186;51.394;5.454;2023-04-01T05:43:26;11.90;83.90
26821;DHT22;37186;51.394;5.454;2023-04-01T05:46:26;11.90;84.10
26821;DHT22;37186;51.394;5.454;2023-04-01T05:49:27;11.90;83.90
26821;DHT22;37186;51.394;5.454;2023-04-01T05:52:27;11.90;83.90
26821;DHT22;37186;51.394;5.454;2023-04-01T05:55:28;11.90;84.50
26821;DHT22;37186;51.394;5.454;2023-04-01T05:58:28;11.90;84.10
26821;DHT22;37186;51.394;5.454;2023-04-01T06:01:29;11.80;84.20
26821;DHT22;37186;51.394;5.454;2023-04-01T06:04:37;11.80;84.10
26821;DHT22;37186;51.394;5.454;2023-04-01T06:07:38;11.80;84.00
26821;DHT22;37186;51.394;5.454;2023-04-01T06:17:27;11.80;84.00
26821;DHT22;37186;51.394;5.454;2023-04-01T06:20:55;11.80;84.30
26821;DHT22;37186;51.394;5.454;2023-04-01T06:24:21;11.80;84.20
26821;DHT22;37186;51.394;5.454;2023-04-01T06:27:51;11.80;84.20
26821;DHT22;37186;51.394;5.454;2023-04-01T06:44:43;11.80;84.40
26821;DHT22;37186;51.394;5.454;2023-04-01T06:48:21;11.70;84.50
26821;DHT22;37186;51.394;5.454;2023-04-01T06:55:08;11.70;84.80
26821;DHT22;37186;51.394;5.454;2023-04-01T06:58:21;11.70;84.70
26821;DHT22;37186;51.394;5.454;2023-04-01T07:01:35;11.70;85.10
26821;DHT22;37186;51.394;5.454;2023-04-01T07:04:45;11.70;84.70
26821;DHT22;37186;51.394;5.454;2023-04-01T07:07:53;11.70;85.10
26821;DHT22;37186;51.394;5.454;2023-04-01T07:11:02;11.70;85.50
26821;DHT22;37186;51.394;5.454;2023-04-01T07:17:31;11.70;85.20
26821;DHT22;37186;51.394;5.454;2023-04-01T07:20:35;11.70;84.70
26821;DHT22;37186;51.394;5.454;2023-04-01T07:23:40;11.70;85.40
26821;DHT22;37186;51.394;5.454;2023-04-01T07:26:42;11.70;85.30
26821;DHT22;37186;51.394;5.454;2023-04-01T07:29:43;11.80;85.40
26821;DHT22;37186;51.394;5.454;2023-04-01T07:33:11;11.80;85.30
26821;DHT22;37186;51.394;5.454;2023-04-01T07:46:57;11.80;84.90
26821;DHT22;37186;51.394;5.454;2023-04-01T07:50:26;11.80;85.10
26821;DHT22;37186;51.394;5.454;2023-04-01T07:57:00;11.80;85.50
26821;DHT22;37186;51.394;5.454;2023-04-01T08:10:26;11.90;86.60
26821;DHT22;37186;51.394;5.454;2023-04-01T08:16:58;12.00;86.60
26821;DHT22;37186;51.394;5.454;2023-04-01T08:23:25;12.00;86.00
26821;DHT22;37186;51.394;5.454;2023-04-01T08:26:34;12.10;86.00
26821;DHT22;37186;51.394;5.454;2023-04-01T08:29:48;12.10;86.70
26821;DHT22;37186;51.394;5.454;2023-04-01T08:33:00;12.10;86.40
26821;DHT22;37186;51.394;5.454;2023-04-01T08:36:20;12.10;86.60
26821;DHT22;37186;51.394;5.454;2023-04-01T08:39:40;12.10;86.00
26821;DHT22;37186;51.394;5.454;2023-04-01T08:43:06;12.10;85.90
26821;DHT22;37186;51.394;5.454;2023-04-01T09:00:24;12.30;86.40
26821;DHT22;37186;51.394;5.454;2023-04-01T09:07:07;12.40;86.20
26821;DHT22;37186;51.394;5.454;2023-04-01T09:10:40;12.40;86.60
26821;DHT22;37186;51.394;5.454;2023-04-01T09:17:32;12.40;86.30
26821;DHT22;37186;51.394;5.454;2023-04-01T09:20:46;12.50;86.20
26821;DHT22;37186;51.394;5.454;2023-04-01T09:24:13;12.50;86.50
26821;DHT22;37186;51.394;5.454;2023-04-01T09:37:46;12.60;85.90
26821;DHT22;37186;51.394;5.454;2023-04-01T09:41:06;12.60;86.50
26821;DHT22;37186;51.394;5.454;2023-04-01T09:44:22;12.60;86.10
26821;DHT22;37186;51.394;5.454;2023-04-01T09:57:26;12.60;86.50
26821;DHT22;37186;51.394;5.454;2023-04-01T10:00:55;12.60;86.40
26821;DHT22;37186;51.394;5.454;2023-04-01T10:10:44;12.60;85.90
26821;DHT22;37186;51.394;5.454;2023-04-01T10:34:02;12.40;86.40
26821;DHT22;37186;51.394;5.454;2023-04-01T10:50:41;12.50;86.00
26821;DHT22;37186;51.394;5.454;2023-04-01T11:14:24;12.50;86.20
26821;DHT22;37186;51.394;5.454;2023-04-01T11:17:41;12.50;86.30
26821;DHT22;37186;51.394;5.454;2023-04-01T11:27:59;12.50;86.60
26821;DHT22;37186;51.394;5.454;2023-04-01T11:31:09;12.50;86.60
26821;DHT22;37186;51.394;5.454;2023-04-01T11:37:29;12.50;86.20
26821;DHT22;37186;51.394;5.454;2023-04-01T11:44:24;12.50;86.60
26821;DHT22;37186;51.394;5.454;2023-04-01T11:47:52;12.50;86.40
26821;DHT22;37186;51.394;5.454;2023-04-01T11:51:50;12.50;86.70
26821;DHT22;37186;51.394;5.454;2023-04-01T12:01:27;12.50;86.50
26821;DHT22;37186;51.394;5.454;2023-04-01T12:11:39;12.50;86.90
26821;DHT22;37186;51.394;5.454;2023-04-01T12:21:08;12.50;86.60
26821;DHT22;37186;51.394;5.454;2023-04-01T12:24:46;12.50;86.90
26821;DHT22;37186;51.394;5.454;2023-04-01T12:28:03;12.50;87.00
26821;DHT22;37186;51.394;5.454;2023-04-01T12:34:58;12.50;86.80
26821;DHT22;37186;51.394;5.454;2023-04-01T12:38:24;12.50;86.90
26821;DHT22;37186;51.394;5.454;2023-04-01T12:42:02;12.50;86.80
26821;DHT22;37186;51.394;5.454;2023-04-01T12:45:20;12.50;86.70
26821;DHT22;37186;51.394;5.454;2023-04-01T12:52:08;12.60;86.60
26821;DHT22;37186;51.394;5.454;2023-04-01T12:55:41;12.60;87.10
26821;DHT22;37186;51.394;5.454;2023-04-01T13:05:15;12.60;87.00
26821;DHT22;37186;51.394;5.454;2023-04-01T13:08:36;12.60;86.90
26821;DHT22;37186;51.394;5.454;2023-04-01T13:18:55;12.70;86.70
26821;DHT22;37186;51.394;5.454;2023-04-01T13:25:33;12.70;87.10
26821;DHT22;37186;51.394;5.454;2023-04-01T13:28:43;12.70;86.70
26821;DHT22;37186;51.394;5.454;2023-04-01T13:42:28;12.70;86.90
26821;DHT22;37186;51.394;5.454;2023-04-01T13:52:08;12.70;87.10
26821;DHT22;37186;51.394;5.454;2023-04-01T13:55:35;12.70;86.90
26821;DHT22;37186;51.394;5.454;2023-04-01T14:12:26;12.70;87.20
26821;DHT22;37186;51.394;5.454;2023-04-01T14:22:40;12.60;86.80
26821;DHT22;37186;51.394;5.454;2023-04-01T14:35:50;12.60;87.30
26821;DHT22;37186;51.394;5.454;2023-04-01T14:39:28;12.60;87.40
26821;DHT22;37186;51.394;5.454;2023-04-01T14:42:38;12.60;87.10
26821;DHT22;37186;51.394;5.454;2023-04-01T14:46:08;12.60;87.40
26821;DHT22;37186;51.394;5.454;2023-04-01T14:49:35;12.60;87.00
26821;DHT22;37186;51.394;5.454;2023-04-01T14:52:46;12.60;87.50
26821;DHT22;37186;51.394;5.454;2023-04-01T14:55:58;12.50;87.40
26821;DHT22;37186;51.394;5.454;2023-04-01T14:58:59;12.60;87.20
26821;DHT22;37186;51.394;5.454;2023-04-01T15:05:10;12.50;87.30
26821;DHT22;37186;51.394;5.454;2023-04-01T15:08:21;12.50;87.10
26821;DHT22;37186;51.394;5.454;2023-04-01T15:18:03;12.60;87.00
26821;DHT22;37186;51.394;5.454;2023-04-01T15:24:26;12.60;87.50
26821;DHT22;37186;51.394;5.454;2023-04-01T15:37:54;12.50;87.50
26821;DHT22;37186;51.394;5.454;2023-04-01T15:41:10;12.50;87.40
26821;DHT22;37186;51.394;5.454;2023-04-01T15:47:59;12.50;87.50
26821;DHT22;37186;51.394;5.454;2023-04-01T15:54:27;12.40;87.40
26821;DHT22;37186;51.394;5.454;2023-04-01T16:01:13;12.40;87.40
26821;DHT22;37186;51.394;5.454;2023-04-01T16:22:01;12.40;87.30
26821;DHT22;37186;51.394;5.454;2023-04-01T16:25:09;12.40;87.30
26821;DHT22;37186;51.394;5.454;2023-04-01T16:34:38;12.40;87.10
26821;DHT22;37186;51.394;5.454;2023-04-01T16:37:47;12.40;87.10
26821;DHT22;37186;51.394;5.454;2023-04-01T16:44:24;12.40;87.40
26821;DHT22;37186;51.394;5.454;2023-04-01T16:47:36;12.40;87.30
26821;DHT22;37186;51.394;5.454;2023-04-01T16:51:04;12.40;87.10
26821;DHT22;37186;51.394;5.454;2023-04-01T16:57:46;12.40;87.20
26821;DHT22;37186;51.394;5.454;2023-04-01T17:00:51;12.40;87.10
26821;DHT22;37186;51.394;5.454;2023-04-01T17:03:58;12.40;86.90
26821;DHT22;37186;51.394;5.454;2023-04-01T17:11:00;12.40;86.90
26821;DHT22;37186;51.394;5.454;2023-04-01T17:21:15;12.40;87.20
26821;DHT22;37186;51.394;5.454;2023-04-01T17:24:25;12.40;87.10
26821;DHT22;37186;51.394;5.454;2023-04-01T17:28:04;12.40;87.20
26821;DHT22;37186;51.394;5.454;2023-04-01T17:35:02;12.40;87.30
26821;DHT22;37186;51.394;5.454;2023-04-01T17:41:41;12.30;86.90
26821;DHT22;37186;51.394;5.454;2023-04-01T17:44:59;12.30;87.10
26821;DHT22;37186;51.394;5.454;2023-04-01T17:48:31;12.40;87.10
26821;DHT22;37186;51.394;5.454;2023-04-01T17:51:42;12.40;86.80
26821;DHT22;37186;51.394;5.454;2023-04-01T17:54:55;12.40;86.80
26821;DHT22;37186;51.394;5.454;2023-04-01T17:58:10;12.40;86.80
26821;DHT22;37186;51.394;5.454;2023-04-01T18:08:15;12.40;86.70
26821;DHT22;37186;51.394;5.454;2023-04-01T18:11:33;12.40;86.70
26821;DHT22;37186;51.394;5.454;2023-04-01T18:21:52;12.50;86.70
26821;DHT22;37186;51.394;5.454;2023-04-01T18:31:18;12.50;86.70
26821;DHT22;37186;51.394;5.454;2023-04-01T18:37:53;12.50;86.60
26821;DHT22;37186;51.394;5.454;2023-04-01T18:41:12;12.50;86.70
26821;DHT22;37186;51.394;5.454;2023-04-01T18:50:54;12.60;86.70
26821;DHT22;37186;51.394;5.454;2023-04-01T18:54:05;12.60;86.60
26821;DHT22;37186;51.394;5.454;2023-04-01T18:57:18;12.60;86.60
26821;DHT22;37186;51.394;5.454;2023-04-01T19:00:25;12.60;86.70
26821;DHT22;37186;51.394;5.454;2023-04-01T19:03:34;12.60;86.60
26821;DHT22;37186;51.394;5.454;2023-04-01T19:09:46;12.70;86.60
26821;DHT22;37186;51.394;5.454;2023-04-01T19:13:21;12.70;86.70
26821;DHT22;37186;51.394;5.454;2023-04-01T19:20:18;12.70;86.80
26821;DHT22;37186;51.394;5.454;2023-04-01T19:30:21;12.70;86.70
26821;DHT22;37186;51.394;5.454;2023-04-01T19:37:11;12.60;86.50
26821;DHT22;37186;51.394;5.454;2023-04-01T20:04:47;12.60;86.40
26821;DHT22;37186;51.394;5.454;2023-04-01T20:07:52;12.60;86.60
26821;DHT22;37186;51.394;5.454;2023-04-01T20:11:11;12.60;86.40
26821;DHT22;37186;51.394;5.454;2023-04-01T20:14:35;12.60;86.40
26821;DHT22;37186;51.394;5.454;2023-04-01T20:20:37;12.50;86.20
26821;DHT22;37186;51.394;5.454;2023-04-01T20:23:50;12.50;86.30
26821;DHT22;37186;51.394;5.454;2023-04-01T20:30:32;12.50;86.40
26821;DHT22;37186;51.394;5.454;2023-04-01T20:37:09;12.40;86.30
26821;DHT22;37186;51.394;5.454;2023-04-01T20:43:42;12.40;86.20
26821;DHT22;37186;51.394;5.454;2023-04-01T20:46:56;12.40;86.30
26821;DHT22;37186;51.394;5.454;2023-04-01T20:50:19;12.40;86.20
26821;DHT22;37186;51.394;5.454;2023-04-01T20:53:35;12.30;86.30
26821;DHT22;37186;51.394;5.454;2023-04-01T21:03:12;12.30;86.20
26821;DHT22;37186;51.394;5.454;2023-04-01T21:06:37;12.30;86.90
26821;DHT22;37186;51.394;5.454;2023-04-01T21:09:48;12.20;86.30
26821;DHT22;37186;51.394;5.454;2023-04-01T21:46:40;12.00;86.10
26821;DHT22;37186;51.394;5.454;2023-04-01T21:53:44;12.00;86.20
26821;DHT22;37186;51.394;5.454;2023-04-01T22:00:17;12.00;86.10
26821;DHT22;37186;51.394;5.454;2023-04-01T22:07:15;11.90;86.10
26821;DHT22;37186;51.394;5.454;2023-04-01T22:10:38;11.90;86.10
26821;DHT22;37186;51.394;5.454;2023-04-01T22:16:59;11.90;86.10
26821;DHT22;37186;51.394;5.454;2023-04-01T22:20:33;11.80;86.10
26821;DHT22;37186;51.394;5.454;2023-04-01T22:26:54;11.80;85.90
26821;DHT22;37186;51.394;5.454;2023-04-01T22:43:05;11.70;85.80
26821;DHT22;37186;51.394;5.454;2023-04-01T22:49:47;11.70;85.90
26821;DHT22;37186;51.394;5.454;2023-04-01T22:53:08;11.60;85.70
26821;DHT22;37186;51.394;5.454;2023-04-01T22:56:32;11.60;86.00
26821;DHT22;37186;51.394;5.454;2023-04-01T22:59:50;11.60;85.90
26821;DHT22;37186;51.394;5.454;2023-04-01T23:06:35;11.50;85.90
26821;DHT22;37186;51.394;5.454;2023-04-01T23:09:38;11.50;85.90
26821;DHT22;37186;51.394;5.454;2023-04-01T23:12:40;11.50;85.90
26821;DHT22;37186;51.394;5.454;2023-04-01T23:15:41;11.50;85.80
26821;DHT22;37186;51.394;5.454;2023-04-01T23:19:08;11.50;85.60
26821;DHT22;37186;51.394;5.454;2023-04-01T23:28:39;11.40;85.80
26821;DHT22;37186;51.394;5.454;2023-04-01T23:31:42;11.40;85.90
26821;DHT22;37186;51.394;5.454;2023-04-01T23:34:52;11.40;85.70
26821;DHT22;37186;51.394;5.454;2023-04-01T23:37:54;11.40;85.80
26821;DHT22;37186;51.394;5.454;2023-04-01T23:40:55;11.40;85.70
26821;DHT22;37186;51.394;5.454;2023-04-01T23:44:08;11.30;85.60
26821;DHT22;37186;51.394;5.454;2023-04-01T23:47:16;11.30;85.70
26821;DHT22;37186;51.394;5.454;2023-04-01T23:50:23;11.30;85.60
26821;DHT22;37186;51.394;5.454;2023-04-01T23:53:26;11.30;85.60
26821;DHT22;37186;51.394;5.454;2023-04-01T23:56:43;11.20;85.60
